Аэропорт: Кадала. Чита

ICAO: UIAA

METAR:
2020-08-13 11:00:00
UIAA 131100Z 02004MPS 4300 -SHRA BKN032CB 15/13 Q1002 R29/150060 NOSIG RMK QFE693/0924
METAR:
2020-08-13 09:22:00
TAF AMD UIAA 130922Z 1309/1409 08006G12MPS 9999 BKN030CB TEMPO 1309/1409 02003MPS 3100 -TSRA OVC014CB